Погода Лок-Батанна неделю

Апшеронский район, Азербайджан

16 - 22 июня
  • 16июня
    Сегодня
    +23°
    +31°
    Ясно и безоблачно
    ВремяПогодаТемператураВлажностьДавлениеВетер, м/сВероятность осадков
    01:00Ясно и безоблачно+24°C91 %754 мм4.1 м/с2 %
    04:00Ясно и безоблачно+23°C94 %754 мм3.2 м/с2 %
    07:00Практически безоблачно+25°C87 %754 мм3.8 м/с2 %
    10:00Ясно и безоблачно+28°C73 %755 мм4.4 м/с2 %
    13:00Ясно и безоблачно+30°C63 %754 мм5.1 м/с2 %
    16:00Практически безоблачно+30°C59 %754 мм5.0 м/с2 %
    19:00Облачно с прояснениями+27°C71 %754 мм4.4 м/с2 %
    22:00Ясно и безоблачно+25°C84 %755 мм3.1 м/с2 %
  • 17июня
    Понедельник
    +24°
    +33°
    Ясно и безоблачно
    ВремяПогодаТемператураВлажностьДавлениеВетер, м/сВероятность осадков
    01:00Практически безоблачно+24°C87 %755 мм3.0 м/с2 %
    04:00Ясно и безоблачно+24°C88 %755 мм2.0 м/с2 %
    07:00Ясно и безоблачно+25°C84 %756 мм2.9 м/с2 %
    10:00Ясно и безоблачно+30°C66 %757 мм3.4 м/с2 %
    13:00Ясно и безоблачно+33°C54 %756 мм4.4 м/с2 %
    16:00Практически безоблачно+32°C56 %756 мм4.8 м/с2 %
    19:00Облачно с прояснениями+29°C67 %756 мм3.3 м/с2 %
    22:00Облачно с прояснениями+26°C80 %757 мм2.1 м/с2 %
  • 18июня
    Вторник
    +24°
    +34°
    Ясно и безоблачно
    ВремяПогодаТемператураВлажностьДавлениеВетер, м/сВероятность осадков
    01:00Небольшая облачность+25°C87 %756 мм2.3 м/с2 %
    04:00Ясно и безоблачно+24°C91 %756 мм2.1 м/с2 %
    07:00Ясно и безоблачно+26°C86 %757 мм2.0 м/с2 %
    10:00Ясно и безоблачно+31°C62 %758 мм3.0 м/с2 %
    13:00Ясно и безоблачно+34°C51 %757 мм4.2 м/с2 %
    16:00Практически безоблачно+33°C54 %756 мм4.4 м/с2 %
    19:00Облачно с прояснениями+30°C64 %756 мм2.8 м/с2 %
    22:00Практически безоблачно+27°C77 %757 мм1.4 м/с2 %
  • 19июня
    Среда
    +25°
    +35°
    Практически безоблачно
    ВремяПогодаТемператураВлажностьДавлениеВетер, м/сВероятность осадков
    01:00Небольшая облачность+25°C86 %757 мм1.7 м/с2 %
    04:00Ясно и безоблачно+25°C82 %757 мм2.5 м/с2 %
    07:00Практически безоблачно+27°C76 %757 мм4.1 м/с2 %
    10:00Ясно и безоблачно+32°C46 %758 мм6.7 м/с2 %
    13:00Практически безоблачно+35°C42 %758 мм5.9 м/с2 %
    16:00Небольшая облачность+33°C45 %757 мм5.2 м/с2 %
    19:00Небольшая облачность+29°C58 %757 мм5.1 м/с2 %
    22:00Ясно и безоблачно+27°C75 %757 мм3.6 м/с2 %
  • 20июня
    Четверг
    +24°
    +37°
    Практически безоблачно
    ВремяПогодаТемператураВлажностьДавлениеВетер, м/сВероятность осадков
    01:00Ясно и безоблачно+26°C79 %757 мм1.6 м/с2 %
    04:00Ясно и безоблачно+26°C76 %756 мм2.9 м/с2 %
    07:00Ясно и безоблачно+27°C66 %757 мм1.9 м/с2 %
    10:00Ясно и безоблачно+33°C44 %757 мм2.1 м/с2 %
    13:00Практически безоблачно+36°C31 %756 мм3.6 м/с3 %
    16:00Небольшая облачность+36°C42 %755 мм1.5 м/с3 %
    19:00Небольшая облачность+32°C47 %755 мм0.7 м/с2 %
    22:00Ясно и безоблачно+28°C55 %755 мм0.2 м/с2 %
Мы используем cookies
Соглашаюсь